Time;durP1;ratioP1;P1;durP2;ratioP2;P2;SDS_P1;SDS_P2;PMS_P1;PMS_P2;Temp;Humidity;BMP_temperature;BMP_pressure;BME280_temperature;BME280_humidity;BME280_pressure;Samples;Min_cycle;Max_cycle;Signal;HPM_P1;HPM_P2
2022/01/28 00:00:32;0.00;0.00;0.62;0.00;0.00;0.62;3.07;1.03;;;20.60;28.10;;;;;;2265357;61;20399;-58
2022/01/28 00:03:18;0.00;0.00;0.62;0.00;0.00;0.62;1.90;1.20;;;20.60;28.10;;;;;;2265205;61;20808;-60
2022/01/28 00:06:05;0.00;0.00;0.62;0.00;0.00;0.62;1.70;0.90;;;20.60;28.10;;;;;;2265148;61;20405;-61
2022/01/28 00:08:50;0.00;0.00;0.62;0.00;0.00;0.62;2.47;1.23;;;20.60;28.10;;;;;;2265088;61;20368;-60
2022/01/28 00:11:35;0.00;0.00;0.62;0.00;0.00;0.62;2.77;1.47;;;20.70;28.20;;;;;;2265077;61;20778;-59
2022/01/28 00:14:37;0.00;0.00;0.62;0.00;0.00;0.62;4.50;1.70;;;20.60;28.00;;;;;;2265301;61;20587;-61
2022/01/28 00:18:01;0.00;0.00;0.62;0.00;0.00;0.62;5.30;1.60;;;20.60;27.70;;;;;;2265425;61;20364;-62
2022/01/28 00:38:45;0.00;0.00;0.62;0.00;0.00;0.62;4.20;1.80;;;20.20;26.40;;;;;;2265120;61;20365;-61
2022/01/28 00:41:29;0.00;0.00;0.62;0.00;0.00;0.62;5.83;2.10;;;20.20;26.30;;;;;;2265473;61;20434;-62
2022/01/28 00:44:14;0.00;0.00;0.62;0.00;0.00;0.62;6.57;1.97;;;20.10;26.30;;;;;;2266102;61;20380;-59
2022/01/28 00:46:59;0.00;0.00;0.62;0.00;0.00;0.62;5.83;1.87;;;20.10;26.30;;;;;;2265390;61;20354;-62
2022/01/28 00:49:43;0.00;0.00;0.62;0.00;0.00;0.62;4.27;1.80;;;20.00;26.20;;;;;;2309728;53;20369;-58
2022/01/28 00:52:30;0.00;0.00;0.62;0.00;0.00;0.62;2.80;1.60;;;20.00;26.20;;;;;;2265180;61;20589;-59
2022/01/28 00:55:14;0.00;0.00;0.62;0.00;0.00;0.62;5.47;2.20;;;19.90;26.20;;;;;;2265831;61;20439;-59
2022/01/28 00:57:59;0.00;0.00;0.62;0.00;0.00;0.62;6.93;2.37;;;19.90;26.20;;;;;;2265852;61;20652;-58
2022/01/28 01:00:43;0.00;0.00;0.62;0.00;0.00;0.62;6.30;2.10;;;19.80;26.00;;;;;;2265287;61;20407;-61
2022/01/28 01:03:28;0.00;0.00;0.62;0.00;0.00;0.62;8.37;2.30;;;19.80;26.10;;;;;;2265951;61;20600;-60
2022/01/28 01:06:12;0.00;0.00;0.62;0.00;0.00;0.62;6.00;2.87;;;19.70;26.00;;;;;;2265896;61;20432;-59
2022/01/28 01:08:59;0.00;0.00;0.62;0.00;0.00;0.62;3.20;1.60;;;19.70;25.90;;;;;;2265371;61;20392;-60
2022/01/28 01:11:44;0.00;0.00;0.62;0.00;0.00;0.62;4.30;2.23;;;19.60;25.80;;;;;;2265666;61;20365;-61
2022/01/28 01:14:29;0.00;0.00;0.62;0.00;0.00;0.62;4.57;1.90;;;19.60;25.90;;;;;;2265663;61;20365;-61
2022/01/28 01:17:29;0.00;0.00;0.62;0.00;0.00;0.62;7.20;2.20;;;19.50;25.80;;;;;;2265695;61;20400;-61
2022/01/28 01:23:10;0.00;0.00;0.62;0.00;0.00;0.62;4.00;1.93;;;19.50;25.80;;;;;;2265141;61;20381;-59
2022/01/28 01:28:42;0.00;0.00;0.62;0.00;0.00;0.62;9.30;2.03;;;19.30;25.80;;;;;;2265787;61;20469;-61
2022/01/28 01:31:27;0.00;0.00;0.62;0.00;0.00;0.62;6.50;2.43;;;19.30;25.90;;;;;;2265021;61;20407;-61
2022/01/28 01:34:18;0.00;0.00;0.62;0.00;0.00;0.62;5.90;2.20;;;19.30;26.00;;;;;;2265796;61;20597;-62
2022/01/28 01:37:03;0.00;0.00;0.62;0.00;0.00;0.62;7.47;2.40;;;19.20;25.90;;;;;;2265373;61;20361;-60
2022/01/28 01:39:48;0.00;0.00;0.62;0.00;0.00;0.62;6.80;2.57;;;19.20;25.90;;;;;;2265563;61;20361;-60
2022/01/28 01:42:50;0.00;0.00;0.62;0.00;0.00;0.62;6.43;2.07;;;19.20;25.80;;;;;;2265531;61;20381;-60
2022/01/28 01:54:46;0.00;0.00;0.62;0.00;0.00;0.62;5.83;2.37;;;19.00;25.90;;;;;;2265785;61;20372;-61
2022/01/28 01:57:30;0.00;0.00;0.62;0.00;0.00;0.62;7.23;2.50;;;19.00;25.90;;;;;;2265780;61;20740;-59
2022/01/28 02:00:17;0.00;0.00;0.62;0.00;0.00;0.62;5.40;1.93;;;18.90;25.80;;;;;;2265353;61;20373;-62
2022/01/28 02:03:05;0.00;0.00;0.62;0.00;0.00;0.62;5.00;2.00;;;18.90;25.80;;;;;;2265549;61;20384;-62
2022/01/28 02:05:49;0.00;0.00;0.62;0.00;0.00;0.62;4.50;1.73;;;18.90;25.80;;;;;;2265708;61;20431;-61
2022/01/28 02:08:35;0.00;0.00;0.62;0.00;0.00;0.62;7.57;2.60;;;18.80;25.80;;;;;;2265451;61;20411;-61
2022/01/28 02:11:19;0.00;0.00;0.62;0.00;0.00;0.62;6.57;3.00;;;18.90;25.80;;;;;;2265373;61;20360;-61
2022/01/28 02:14:04;0.00;0.00;0.62;0.00;0.00;0.62;9.53;2.57;;;18.80;25.80;;;;;;2265096;61;20384;-61
2022/01/28 02:16:50;0.00;0.00;0.62;0.00;0.00;0.62;5.40;2.13;;;18.80;25.80;;;;;;2265579;61;20709;-61
2022/01/28 02:19:35;0.00;0.00;0.62;0.00;0.00;0.62;5.63;2.00;;;18.80;25.80;;;;;;2265622;61;20416;-60
2022/01/28 02:22:21;0.00;0.00;0.62;0.00;0.00;0.62;9.27;2.43;;;18.70;25.70;;;;;;2264965;61;20427;-59
2022/01/28 02:25:19;0.00;0.00;0.62;0.00;0.00;0.62;4.17;1.80;;;18.70;25.70;;;;;;2265450;61;20415;-59
2022/01/28 02:28:08;0.00;0.00;0.62;0.00;0.00;0.62;8.23;2.13;;;18.70;25.70;;;;;;2265713;61;20360;-61
2022/01/28 02:30:52;0.00;0.00;0.62;0.00;0.00;0.62;7.47;2.30;;;18.70;25.80;;;;;;2265367;61;20726;-60
2022/01/28 02:33:37;0.00;0.00;0.62;0.00;0.00;0.62;6.90;2.53;;;18.70;25.80;;;;;;2265571;61;20377;-62
2022/01/28 02:36:21;0.00;0.00;0.62;0.00;0.00;0.62;5.23;2.50;;;18.70;25.80;;;;;;2265208;61;20360;-60
2022/01/28 02:39:08;0.00;0.00;0.62;0.00;0.00;0.62;5.83;1.80;;;18.60;25.80;;;;;;2265119;61;20612;-59
2022/01/28 02:42:00;0.00;0.00;0.62;0.00;0.00;0.62;10.63;2.50;;;18.60;25.80;;;;;;2265319;61;20365;-60
2022/01/28 02:44:51;0.00;0.00;0.62;0.00;0.00;0.62;6.03;2.13;;;18.60;25.90;;;;;;2265420;61;20437;-61
2022/01/28 02:47:38;0.00;0.00;0.62;0.00;0.00;0.62;6.60;2.20;;;18.60;26.00;;;;;;2265511;61;20472;-60
2022/01/28 02:50:25;0.00;0.00;0.62;0.00;0.00;0.62;10.10;2.67;;;18.50;25.90;;;;;;2529676;53;20380;-60
2022/01/28 02:53:20;0.00;0.00;0.62;0.00;0.00;0.62;8.17;2.80;;;18.50;26.00;;;;;;2265264;61;20620;-60
2022/01/28 02:56:15;0.00;0.00;0.62;0.00;0.00;0.62;8.90;2.47;;;18.50;26.00;;;;;;2265565;61;20672;-60
2022/01/28 02:59:00;0.00;0.00;0.62;0.00;0.00;0.62;9.03;2.80;;;18.50;26.00;;;;;;2264981;61;20373;-61
2022/01/28 03:01:44;0.00;0.00;0.62;0.00;0.00;0.62;4.87;1.93;;;18.50;25.90;;;;;;2265320;61;20388;-60
2022/01/28 03:05:01;0.00;0.00;0.62;0.00;0.00;0.62;5.37;2.53;;;18.40;25.90;;;;;;2265596;61;20938;-61
2022/01/28 03:07:37;0.00;0.00;0.62;0.00;0.00;0.62;6.27;2.60;;;18.40;25.80;;;;;;2264944;61;20453;-61
2022/01/28 03:11:12;0.00;0.00;0.62;0.00;0.00;0.62;8.77;2.47;;;18.40;25.80;;;;;;2265525;61;20361;-60
2022/01/28 03:16:31;0.00;0.00;0.62;0.00;0.00;0.62;7.17;2.87;;;18.30;25.80;;;;;;2265471;61;20362;-61
2022/01/28 03:19:19;0.00;0.00;0.62;0.00;0.00;0.62;4.33;2.30;;;18.30;25.80;;;;;;2265566;61;20388;-61
2022/01/28 03:22:04;0.00;0.00;0.62;0.00;0.00;0.62;5.73;2.00;;;18.30;25.80;;;;;;2264569;61;20392;-60
2022/01/28 03:24:52;0.00;0.00;0.62;0.00;0.00;0.62;7.03;2.20;;;18.20;25.80;;;;;;2265388;61;20391;-60
2022/01/28 03:27:57;0.00;0.00;0.62;0.00;0.00;0.62;5.43;1.80;;;18.20;25.80;;;;;;2265253;61;20365;-61
2022/01/28 03:30:43;0.00;0.00;0.62;0.00;0.00;0.62;3.53;1.50;;;18.20;25.80;;;;;;2265284;61;20590;-59
2022/01/28 03:33:27;0.00;0.00;0.62;0.00;0.00;0.62;7.60;2.30;;;18.20;25.90;;;;;;2265370;61;20407;-59
2022/01/28 03:36:13;0.00;0.00;0.62;0.00;0.00;0.62;5.67;1.70;;;18.20;25.90;;;;;;2264968;61;20365;-60
2022/01/28 03:38:58;0.00;0.00;0.62;0.00;0.00;0.62;4.10;2.27;;;18.20;25.90;;;;;;2265170;61;20357;-61
2022/01/28 03:41:43;0.00;0.00;0.62;0.00;0.00;0.62;5.90;1.90;;;18.20;26.00;;;;;;2265262;61;20709;-60
2022/01/28 03:44:27;0.00;0.00;0.62;0.00;0.00;0.62;4.67;1.70;;;18.10;25.90;;;;;;2264918;61;20435;-59
2022/01/28 03:47:13;0.00;0.00;0.62;0.00;0.00;0.62;4.93;2.03;;;18.10;25.90;;;;;;2265351;61;20377;-60
2022/01/28 03:49:58;0.00;0.00;0.62;0.00;0.00;0.62;5.57;2.00;;;18.10;25.90;;;;;;2264944;61;20455;-60
2022/01/28 03:52:43;0.00;0.00;0.62;0.00;0.00;0.62;8.80;2.43;;;18.10;25.90;;;;;;2265810;61;20453;-60
2022/01/28 03:55:28;0.00;0.00;0.62;0.00;0.00;0.62;5.87;1.97;;;18.10;25.90;;;;;;2266114;61;20380;-61
2022/01/28 03:58:14;0.00;0.00;0.62;0.00;0.00;0.62;3.20;1.53;;;18.10;25.90;;;;;;2265694;61;20588;-60
2022/01/28 04:00:59;0.00;0.00;0.62;0.00;0.00;0.62;6.47;2.60;;;18.10;26.00;;;;;;2265814;61;20400;-62
2022/01/28 04:12:41;0.00;0.00;0.62;0.00;0.00;0.62;4.07;2.10;;;18.00;25.90;;;;;;2265359;61;20391;-61
2022/01/28 04:15:52;0.00;0.00;0.62;0.00;0.00;0.62;5.73;1.67;;;18.00;25.90;;;;;;2265913;61;20352;-59
2022/01/28 04:18:36;0.00;0.00;0.62;0.00;0.00;0.62;3.20;1.60;;;18.00;25.90;;;;;;2266018;61;20725;-61
2022/01/28 04:21:22;0.00;0.00;0.62;0.00;0.00;0.62;4.30;2.00;;;18.00;26.00;;;;;;2265139;61;20788;-61
2022/01/28 04:24:06;0.00;0.00;0.62;0.00;0.00;0.62;6.70;1.90;;;18.00;26.00;;;;;;2265552;61;20384;-60
2022/01/28 04:26:51;0.00;0.00;0.62;0.00;0.00;0.62;4.30;1.83;;;18.00;26.00;;;;;;2265524;61;20384;-62
2022/01/28 04:29:36;0.00;0.00;0.62;0.00;0.00;0.62;4.10;1.67;;;18.00;26.00;;;;;;2265841;61;20365;-62
2022/01/28 04:32:21;0.00;0.00;0.62;0.00;0.00;0.62;4.47;1.70;;;17.90;26.00;;;;;;2265335;61;20665;-60
2022/01/28 04:35:07;0.00;0.00;0.62;0.00;0.00;0.62;3.77;1.67;;;17.90;26.00;;;;;;2265545;61;20399;-59
2022/01/28 04:38:18;0.00;0.00;0.62;0.00;0.00;0.62;3.10;1.57;;;17.90;25.90;;;;;;2265944;61;20363;-59
2022/01/28 04:41:16;0.00;0.00;0.62;0.00;0.00;0.62;7.60;2.27;;;17.90;25.90;;;;;;2265612;61;20365;-62
2022/01/28 04:44:09;0.00;0.00;0.62;0.00;0.00;0.62;5.30;2.30;;;17.90;25.90;;;;;;2265569;61;20629;-61
2022/01/28 04:47:04;0.00;0.00;0.62;0.00;0.00;0.62;2.77;1.63;;;17.90;25.90;;;;;;2265913;61;20494;-61
2022/01/28 04:52:52;0.00;0.00;0.62;0.00;0.00;0.62;3.80;2.00;;;17.90;26.00;;;;;;2265661;61;20381;-59
2022/01/28 04:55:55;0.00;0.00;0.62;0.00;0.00;0.62;4.73;2.00;;;17.90;25.90;;;;;;2266052;61;20370;-61
2022/01/28 05:01:49;0.00;0.00;0.62;0.00;0.00;0.62;5.83;1.67;;;17.90;26.00;;;;;;2265485;61;20636;-62
2022/01/28 05:04:52;0.00;0.00;0.62;0.00;0.00;0.62;5.63;2.83;;;17.90;26.00;;;;;;2265368;61;20405;-59
2022/01/28 05:10:49;0.00;0.00;0.62;0.00;0.00;0.62;5.00;1.80;;;17.90;26.10;;;;;;2265878;61;20385;-59
2022/01/28 05:26:11;0.00;0.00;0.62;0.00;0.00;0.62;4.80;1.87;;;18.00;26.40;;;;;;2265806;61;20396;-62
2022/01/28 05:28:54;0.00;0.00;0.62;0.00;0.00;0.62;3.83;1.67;;;18.10;26.50;;;;;;2265650;61;20716;-62
2022/01/28 05:31:39;0.00;0.00;0.62;0.00;0.00;0.62;6.90;2.23;;;18.10;26.50;;;;;;2265507;61;20709;-61
2022/01/28 05:34:26;0.00;0.00;0.62;0.00;0.00;0.62;5.00;1.47;;;18.20;26.50;;;;;;2265349;61;20392;-61
2022/01/28 05:37:11;0.00;0.00;0.62;0.00;0.00;0.62;4.50;1.80;;;18.20;26.50;;;;;;2265738;61;20399;-59
2022/01/28 05:39:56;0.00;0.00;0.62;0.00;0.00;0.62;3.57;1.73;;;18.20;26.50;;;;;;2265700;61;20409;-60
2022/01/28 05:42:40;0.00;0.00;0.62;0.00;0.00;0.62;3.50;1.83;;;18.20;26.50;;;;;;2265013;61;20389;-59
2022/01/28 05:45:26;0.00;0.00;0.62;0.00;0.00;0.62;3.00;1.43;;;18.30;26.50;;;;;;2265642;61;20600;-60
2022/01/28 05:48:11;0.00;0.00;0.62;0.00;0.00;0.62;4.80;1.63;;;18.30;26.50;;;;;;2265459;61;20369;-56
2022/01/28 05:50:56;0.00;0.00;0.62;0.00;0.00;0.62;4.37;1.37;;;18.30;26.50;;;;;;2265607;61;20361;-57
2022/01/28 05:53:40;0.00;0.00;0.62;0.00;0.00;0.62;4.57;1.80;;;18.40;26.60;;;;;;2265657;61;20427;-58
2022/01/28 05:56:26;0.00;0.00;0.62;0.00;0.00;0.62;2.80;1.53;;;18.40;26.60;;;;;;2265246;61;20399;-56
2022/01/28 05:59:10;0.00;0.00;0.62;0.00;0.00;0.62;3.83;1.40;;;18.40;26.60;;;;;;2265710;61;20353;-61
2022/01/28 06:01:56;0.00;0.00;0.62;0.00;0.00;0.62;5.80;1.60;;;18.50;26.70;;;;;;2265464;61;20364;-59
2022/01/28 06:04:42;0.00;0.00;0.62;0.00;0.00;0.62;4.80;2.20;;;18.50;26.80;;;;;;2265172;61;20368;-60
2022/01/28 06:07:26;0.00;0.00;0.62;0.00;0.00;0.62;4.77;1.50;;;18.50;26.80;;;;;;2265622;61;20368;-61
2022/01/28 06:10:13;0.00;0.00;0.62;0.00;0.00;0.62;2.30;1.63;;;18.50;26.80;;;;;;2265854;61;20360;-58
2022/01/28 06:12:57;0.00;0.00;0.62;0.00;0.00;0.62;3.10;1.63;;;18.60;26.90;;;;;;2265352;61;20435;-60
2022/01/28 06:15:43;0.00;0.00;0.62;0.00;0.00;0.62;2.50;1.30;;;18.60;26.90;;;;;;2265577;61;20565;-60
2022/01/28 06:18:29;0.00;0.00;0.62;0.00;0.00;0.62;3.00;1.30;;;18.60;26.80;;;;;;2265185;61;20396;-62
2022/01/28 06:21:14;0.00;0.00;0.62;0.00;0.00;0.62;1.97;1.13;;;18.60;26.80;;;;;;2265238;61;20396;-59
2022/01/28 06:23:58;0.00;0.00;0.62;0.00;0.00;0.62;2.10;1.07;;;18.70;26.90;;;;;;2265721;61;20423;-60
2022/01/28 06:26:42;0.00;0.00;0.62;0.00;0.00;0.62;3.20;1.40;;;18.70;26.90;;;;;;2265531;61;20420;-60
2022/01/28 06:29:27;0.00;0.00;0.62;0.00;0.00;0.62;4.30;1.47;;;18.70;26.80;;;;;;2265594;61;20375;-60
2022/01/28 06:32:11;0.00;0.00;0.62;0.00;0.00;0.62;4.40;1.33;;;18.70;26.80;;;;;;2265540;61;20373;-61
2022/01/28 06:34:58;0.00;0.00;0.62;0.00;0.00;0.62;2.27;0.90;;;18.80;26.90;;;;;;2265179;61;20430;-61
2022/01/28 06:37:44;0.00;0.00;0.62;0.00;0.00;0.62;3.77;1.23;;;18.80;26.90;;;;;;2265411;61;20360;-59
2022/01/28 06:40:28;0.00;0.00;0.62;0.00;0.00;0.62;3.53;1.53;;;18.80;26.80;;;;;;2265199;61;20361;-60
2022/01/28 06:43:14;0.00;0.00;0.62;0.00;0.00;0.62;3.53;1.17;;;18.80;27.40;;;;;;2265343;61;20597;-61
2022/01/28 06:45:59;0.00;0.00;0.62;0.00;0.00;0.62;1.80;1.10;;;18.80;26.80;;;;;;2265481;61;20524;-60
2022/01/28 06:48:43;0.00;0.00;0.62;0.00;0.00;0.62;3.43;1.33;;;18.90;26.90;;;;;;2265040;61;20414;-61
2022/01/28 06:51:29;0.00;0.00;0.62;0.00;0.00;0.62;3.23;1.10;;;18.90;27.30;;;;;;2265048;61;20381;-60
2022/01/28 06:54:14;0.00;0.00;0.62;0.00;0.00;0.62;1.93;1.00;;;18.90;26.80;;;;;;2265549;61;20463;-61
2022/01/28 06:56:58;0.00;0.00;0.62;0.00;0.00;0.62;3.10;1.10;;;18.90;26.80;;;;;;2265063;61;20422;-61
2022/01/28 06:59:44;0.00;0.00;0.62;0.00;0.00;0.62;2.93;1.40;;;18.90;26.80;;;;;;2265475;61;20392;-60
2022/01/28 07:02:28;0.00;0.00;0.62;0.00;0.00;0.62;2.23;0.90;;;18.90;26.80;;;;;;2264819;61;20381;-62
2022/01/28 07:05:12;0.00;0.00;0.62;0.00;0.00;0.62;2.83;1.30;;;19.00;26.80;;;;;;2265374;61;20365;-61
2022/01/28 07:07:59;0.00;0.00;0.62;0.00;0.00;0.62;2.90;1.10;;;19.00;26.80;;;;;;2265514;61;20570;-59
2022/01/28 07:10:44;0.00;0.00;0.62;0.00;0.00;0.62;3.20;1.20;;;19.00;26.80;;;;;;2265295;61;20560;-60
2022/01/28 07:13:28;0.00;0.00;0.62;0.00;0.00;0.62;1.97;1.20;;;19.00;26.80;;;;;;2265403;61;20381;-61
2022/01/28 07:16:13;0.00;0.00;0.62;0.00;0.00;0.62;2.70;0.97;;;19.00;26.80;;;;;;2265518;61;20433;-60
2022/01/28 07:18:57;0.00;0.00;0.62;0.00;0.00;0.62;2.83;1.20;;;19.00;26.80;;;;;;2264901;61;20698;-59
2022/01/28 07:21:42;0.00;0.00;0.62;0.00;0.00;0.62;3.23;0.93;;;19.00;26.80;;;;;;2265184;61;20368;-61
2022/01/28 07:24:28;0.00;0.00;0.62;0.00;0.00;0.62;2.17;0.97;;;19.10;26.80;;;;;;2265137;61;20365;-58
2022/01/28 07:27:19;0.00;0.00;0.62;0.00;0.00;0.62;2.57;0.93;;;19.10;26.80;;;;;;2265234;61;20389;-60
2022/01/28 07:30:06;0.00;0.00;0.62;0.00;0.00;0.62;4.17;1.23;;;19.10;26.80;;;;;;2265420;61;20386;-61
2022/01/28 07:32:52;0.00;0.00;0.62;0.00;0.00;0.62;1.60;0.80;;;19.10;26.80;;;;;;2264786;61;20660;-61
2022/01/28 07:35:37;0.00;0.00;0.62;0.00;0.00;0.62;2.60;0.97;;;19.10;26.70;;;;;;2265439;61;20385;-60
2022/01/28 07:38:21;0.00;0.00;0.62;0.00;0.00;0.62;1.87;0.83;;;19.10;26.70;;;;;;2265532;61;20356;-61
2022/01/28 07:41:07;0.00;0.00;0.62;0.00;0.00;0.62;2.13;1.00;;;19.10;26.70;;;;;;2264647;61;20364;-60
2022/01/28 07:43:52;0.00;0.00;0.62;0.00;0.00;0.62;2.80;1.30;;;19.20;26.80;;;;;;2265471;61;20396;-60
2022/01/28 07:46:37;0.00;0.00;0.62;0.00;0.00;0.62;3.70;1.40;;;19.20;26.80;;;;;;2265153;61;20761;-61
2022/01/28 07:49:21;0.00;0.00;0.62;0.00;0.00;0.62;2.43;1.00;;;19.20;26.70;;;;;;2265211;61;20468;-60
2022/01/28 07:52:06;0.00;0.00;0.62;0.00;0.00;0.62;1.80;1.10;;;19.20;26.70;;;;;;2265144;61;20364;-62
2022/01/28 07:54:51;0.00;0.00;0.62;0.00;0.00;0.62;2.07;1.10;;;19.20;26.70;;;;;;2264843;61;20492;-61
2022/01/28 07:57:36;0.00;0.00;0.62;0.00;0.00;0.62;2.20;0.80;;;19.20;26.70;;;;;;2265385;61;20357;-60
2022/01/28 08:00:26;0.00;0.00;0.62;0.00;0.00;0.62;3.20;1.30;;;19.20;26.70;;;;;;2265581;61;20373;-59
2022/01/28 08:03:12;0.00;0.00;0.62;0.00;0.00;0.62;1.50;0.80;;;19.20;26.70;;;;;;2264502;61;20831;-59
2022/01/28 08:05:57;0.00;0.00;0.62;0.00;0.00;0.62;2.43;0.93;;;19.30;26.80;;;;;;2265353;61;20384;-58
2022/01/28 08:08:41;0.00;0.00;0.62;0.00;0.00;0.62;2.30;1.00;;;19.30;26.70;;;;;;2265346;61;20360;-59
2022/01/28 08:11:26;0.00;0.00;0.62;0.00;0.00;0.62;2.30;1.00;;;19.30;26.70;;;;;;2264820;61;20392;-60
2022/01/28 08:14:14;0.00;0.00;0.62;0.00;0.00;0.62;2.47;1.30;;;19.30;26.70;;;;;;2265378;61;20376;-60
2022/01/28 08:16:59;0.00;0.00;0.62;0.00;0.00;0.62;2.43;1.00;;;19.30;26.70;;;;;;2264817;61;20368;-61
2022/01/28 08:19:44;0.00;0.00;0.62;0.00;0.00;0.62;1.87;1.13;;;19.30;26.70;;;;;;2265119;61;20365;-60
2022/01/28 08:22:30;0.00;0.00;0.62;0.00;0.00;0.62;3.97;1.33;;;19.30;26.70;;;;;;2265181;61;20409;-61
2022/01/28 08:25:15;0.00;0.00;0.62;0.00;0.00;0.62;2.30;1.10;;;19.30;26.70;;;;;;2264852;61;20437;-60
2022/01/28 08:28:01;0.00;0.00;0.62;0.00;0.00;0.62;1.73;0.80;;;19.30;26.70;;;;;;2265259;61;20357;-59
2022/01/28 08:30:47;0.00;0.00;0.62;0.00;0.00;0.62;1.70;1.07;;;19.40;26.70;;;;;;2265250;61;20412;-60
2022/01/28 08:33:31;0.00;0.00;0.62;0.00;0.00;0.62;1.83;0.87;;;19.30;26.70;;;;;;2265329;61;20392;-60
2022/01/28 08:36:16;0.00;0.00;0.62;0.00;0.00;0.62;2.60;1.00;;;19.40;26.70;;;;;;2265526;61;20380;-59
2022/01/28 08:39:03;0.00;0.00;0.62;0.00;0.00;0.62;4.00;1.37;;;19.40;26.70;;;;;;2265451;61;20357;-60
2022/01/28 08:41:48;0.00;0.00;0.62;0.00;0.00;0.62;2.90;1.23;;;19.40;26.70;;;;;;2265661;61;20396;-61
2022/01/28 08:44:33;0.00;0.00;0.62;0.00;0.00;0.62;2.40;0.90;;;19.40;26.70;;;;;;2266035;61;20364;-60
2022/01/28 08:47:19;0.00;0.00;0.62;0.00;0.00;0.62;1.93;0.97;;;19.40;26.70;;;;;;2265573;61;20388;-59
2022/01/28 08:50:04;0.00;0.00;0.62;0.00;0.00;0.62;1.73;0.93;;;19.40;26.70;;;;;;2265969;61;20466;-58
2022/01/28 08:52:49;0.00;0.00;0.62;0.00;0.00;0.62;1.70;0.80;;;19.40;26.60;;;;;;2265886;61;20435;-62
2022/01/28 08:55:33;0.00;0.00;0.62;0.00;0.00;0.62;2.03;1.13;;;19.50;26.70;;;;;;2265740;61;20357;-61
2022/01/28 08:58:18;0.00;0.00;0.62;0.00;0.00;0.62;2.20;0.93;;;19.50;26.70;;;;;;2265924;61;20381;-61
2022/01/28 09:01:02;0.00;0.00;0.62;0.00;0.00;0.62;1.50;0.70;;;19.50;26.70;;;;;;2265220;61;20356;-61
2022/01/28 09:03:49;0.00;0.00;0.62;0.00;0.00;0.62;2.10;1.10;;;19.50;26.70;;;;;;2265897;61;20598;-61
2022/01/28 09:06:34;0.00;0.00;0.62;0.00;0.00;0.62;2.50;1.07;;;19.40;26.60;;;;;;2265832;61;20395;-59
2022/01/28 09:09:19;0.00;0.00;0.62;0.00;0.00;0.62;2.80;1.20;;;19.50;26.70;;;;;;2265502;61;20419;-59
2022/01/28 09:12:18;0.00;0.00;0.62;0.00;0.00;0.62;2.10;0.93;;;19.50;26.60;;;;;;2265492;61;20384;-58
2022/01/28 09:15:05;0.00;0.00;0.62;0.00;0.00;0.62;3.20;1.30;;;19.50;26.60;;;;;;2265868;61;20384;-60
2022/01/28 09:17:49;0.00;0.00;0.62;0.00;0.00;0.62;2.40;1.13;;;19.50;26.60;;;;;;2265702;61;20353;-61
2022/01/28 09:20:36;0.00;0.00;0.62;0.00;0.00;0.62;2.23;1.00;;;19.50;26.60;;;;;;2265773;61;20372;-61
2022/01/28 09:23:21;0.00;0.00;0.62;0.00;0.00;0.62;1.80;1.00;;;19.50;26.60;;;;;;2265363;61;20385;-61
2022/01/28 09:26:05;0.00;0.00;0.62;0.00;0.00;0.62;1.50;0.70;;;19.60;26.70;;;;;;2265788;61;20384;-61
2022/01/28 09:28:50;0.00;0.00;0.62;0.00;0.00;0.62;2.90;1.07;;;19.60;26.60;;;;;;2265735;61;20398;-60
2022/01/28 09:31:35;0.00;0.00;0.62;0.00;0.00;0.62;3.83;1.23;;;19.60;26.60;;;;;;2265196;61;20628;-60
2022/01/28 09:34:19;0.00;0.00;0.62;0.00;0.00;0.62;1.97;0.90;;;19.60;26.70;;;;;;2265657;61;20388;-60
2022/01/28 09:37:05;0.00;0.00;0.62;0.00;0.00;0.62;1.70;0.90;;;19.60;26.60;;;;;;2265969;61;20354;-60
2022/01/28 09:39:50;0.00;0.00;0.62;0.00;0.00;0.62;1.57;0.90;;;19.60;26.60;;;;;;2265270;61;20396;-61
2022/01/28 09:42:40;0.00;0.00;0.62;0.00;0.00;0.62;2.90;1.20;;;19.60;26.60;;;;;;2265365;61;20404;-61
2022/01/28 09:45:25;0.00;0.00;0.62;0.00;0.00;0.62;2.03;0.90;;;19.60;26.70;;;;;;2265368;61;20361;-60
2022/01/28 09:48:11;0.00;0.00;0.62;0.00;0.00;0.62;1.97;0.90;;;19.60;26.70;;;;;;2265487;61;20361;-61
2022/01/28 09:50:58;0.00;0.00;0.62;0.00;0.00;0.62;3.83;1.50;;;19.60;26.70;;;;;;2265674;61;20408;-61
2022/01/28 09:53:44;0.00;0.00;0.62;0.00;0.00;0.62;1.50;0.80;;;19.60;26.60;;;;;;2265269;61;20449;-60
2022/01/28 09:56:29;0.00;0.00;0.62;0.00;0.00;0.62;1.50;0.80;;;19.70;26.70;;;;;;2265405;61;20612;-60
2022/01/28 09:59:14;0.00;0.00;0.62;0.00;0.00;0.62;2.40;1.17;;;19.70;26.70;;;;;;2265809;61;20400;-60
2022/01/28 10:01:58;0.00;0.00;0.62;0.00;0.00;0.62;2.47;0.90;;;19.70;26.70;;;;;;2264970;61;20350;-59
2022/01/28 10:04:43;0.00;0.00;0.62;0.00;0.00;0.62;3.33;1.33;;;19.70;27.30;;;;;;2265260;61;20357;-61
2022/01/28 10:07:27;0.00;0.00;0.62;0.00;0.00;0.62;1.90;0.70;;;19.80;26.80;;;;;;2265207;61;20388;-61
2022/01/28 10:10:13;0.00;0.00;0.62;0.00;0.00;0.62;1.87;0.80;;;19.80;26.80;;;;;;2265470;61;20385;-61
2022/01/28 10:13:23;0.00;0.00;0.62;0.00;0.00;0.62;2.37;0.90;;;19.80;26.80;;;;;;2265542;61;20471;-61
2022/01/28 10:16:11;0.00;0.00;0.62;0.00;0.00;0.62;1.40;0.70;;;19.80;26.80;;;;;;2265580;61;20396;-60
2022/01/28 10:18:58;0.00;0.00;0.62;0.00;0.00;0.62;2.70;1.10;;;19.90;26.90;;;;;;2265547;61;20627;-61
2022/01/28 10:21:44;0.00;0.00;0.62;0.00;0.00;0.62;1.70;0.83;;;19.90;26.80;;;;;;2265487;61;20732;-60
2022/01/28 10:24:29;0.00;0.00;0.62;0.00;0.00;0.62;2.40;0.87;;;19.90;26.80;;;;;;2265485;61;20404;-61
2022/01/28 10:27:17;0.00;0.00;0.62;0.00;0.00;0.62;1.40;0.87;;;19.90;26.80;;;;;;2265218;61;20420;-62
2022/01/28 10:30:06;0.00;0.00;0.62;0.00;0.00;0.62;1.80;0.90;;;20.00;26.80;;;;;;2265198;61;20452;-60
2022/01/28 10:33:16;0.00;0.00;0.62;0.00;0.00;0.62;1.50;1.03;;;20.00;26.80;;;;;;2265255;61;20415;-61
2022/01/28 10:36:02;0.00;0.00;0.62;0.00;0.00;0.62;2.03;0.90;;;20.00;26.80;;;;;;2265739;61;20737;-60
2022/01/28 10:38:47;0.00;0.00;0.62;0.00;0.00;0.62;2.20;1.10;;;20.00;26.70;;;;;;2264955;61;20408;-61
2022/01/28 10:41:31;0.00;0.00;0.62;0.00;0.00;0.62;3.40;1.10;;;20.10;26.90;;;;;;2265315;61;20365;-61
2022/01/28 10:44:18;0.00;0.00;0.62;0.00;0.00;0.62;1.60;0.90;;;20.10;26.90;;;;;;2265188;61;20585;-59
2022/01/28 10:47:06;0.00;0.00;0.62;0.00;0.00;0.62;2.20;0.90;;;20.10;26.90;;;;;;2265441;61;20384;-60
2022/01/28 10:49:51;0.00;0.00;0.62;0.00;0.00;0.62;2.43;0.87;;;20.10;26.90;;;;;;2283358;61;20430;-59
2022/01/28 10:52:35;0.00;0.00;0.62;0.00;0.00;0.62;1.70;0.80;;;20.20;27.00;;;;;;2264873;61;20424;-59
2022/01/28 10:55:20;0.00;0.00;0.62;0.00;0.00;0.62;2.17;1.10;;;20.20;26.90;;;;;;2265704;61;20385;-59
2022/01/28 10:58:06;0.00;0.00;0.62;0.00;0.00;0.62;2.40;1.00;;;20.20;26.90;;;;;;2265513;61;20364;-59
2022/01/28 11:00:57;0.00;0.00;0.62;0.00;0.00;0.62;1.97;0.90;;;20.20;26.80;;;;;;2264595;61;20352;-59
2022/01/28 11:03:42;0.00;0.00;0.62;0.00;0.00;0.62;2.53;0.90;;;20.20;26.70;;;;;;2265460;61;20389;-61
2022/01/28 11:06:26;0.00;0.00;0.62;0.00;0.00;0.62;2.23;0.93;;;20.30;26.80;;;;;;2265029;61;20403;-60
2022/01/28 11:09:15;0.00;0.00;0.62;0.00;0.00;0.62;1.50;0.90;;;20.30;26.80;;;;;;2265458;61;20365;-60
2022/01/28 11:12:00;0.00;0.00;0.62;0.00;0.00;0.62;1.77;0.70;;;20.30;26.80;;;;;;2265260;61;20685;-59
2022/01/28 11:14:45;0.00;0.00;0.62;0.00;0.00;0.62;1.30;0.70;;;20.40;26.90;;;;;;2265003;61;20579;-59
2022/01/28 11:17:31;0.00;0.00;0.62;0.00;0.00;0.62;1.77;1.00;;;20.40;26.90;;;;;;2265575;61;20352;-59
2022/01/28 11:20:20;0.00;0.00;0.62;0.00;0.00;0.62;1.90;0.70;;;20.40;26.90;;;;;;2265551;61;20411;-62
2022/01/28 11:23:17;0.00;0.00;0.62;0.00;0.00;0.62;2.53;0.97;;;20.40;26.90;;;;;;2264667;61;20389;-59
2022/01/28 11:26:17;0.00;0.00;0.62;0.00;0.00;0.62;2.37;1.00;;;20.40;26.90;;;;;;2265403;61;20380;-62
2022/01/28 11:29:12;0.00;0.00;0.62;0.00;0.00;0.62;1.50;0.80;;;20.50;26.90;;;;;;2265004;61;20353;-61
2022/01/28 11:32:08;0.00;0.00;0.62;0.00;0.00;0.62;1.57;0.93;;;20.50;26.90;;;;;;2265176;61;20361;-61
2022/01/28 11:35:02;0.00;0.00;0.62;0.00;0.00;0.62;2.30;0.90;;;20.50;26.90;;;;;;2265465;61;20425;-60
2022/01/28 11:37:47;0.00;0.00;0.62;0.00;0.00;0.62;1.50;0.83;;;20.50;27.00;;;;;;2264698;61;20353;-58
2022/01/28 11:40:43;0.00;0.00;0.62;0.00;0.00;0.62;3.13;0.90;;;20.60;27.00;;;;;;2265368;61;20353;-61
2022/01/28 11:43:32;0.00;0.00;0.62;0.00;0.00;0.62;2.07;1.10;;;20.60;27.00;;;;;;2264939;61;20772;-60
2022/01/28 11:46:23;0.00;0.00;0.62;0.00;0.00;0.62;1.70;0.80;;;20.60;27.00;;;;;;2265325;61;20417;-61
2022/01/28 11:49:22;0.00;0.00;0.62;0.00;0.00;0.62;2.17;1.20;;;20.60;27.00;;;;;;2265389;61;20372;-60
2022/01/28 11:52:25;0.00;0.00;0.62;0.00;0.00;0.62;2.17;1.03;;;20.70;27.10;;;;;;2264700;61;20361;-61
2022/01/28 11:55:33;0.00;0.00;0.62;0.00;0.00;0.62;1.60;0.97;;;20.70;27.10;;;;;;2265332;61;20356;-60
2022/01/28 11:58:17;0.00;0.00;0.62;0.00;0.00;0.62;1.60;0.97;;;20.70;27.10;;;;;;2264471;61;20777;-59
2022/01/28 12:01:02;0.00;0.00;0.62;0.00;0.00;0.62;1.77;0.90;;;20.70;27.10;;;;;;2265179;61;20361;-59
2022/01/28 12:03:46;0.00;0.00;0.62;0.00;0.00;0.62;1.70;0.83;;;20.80;27.20;;;;;;2265240;61;20424;-61
2022/01/28 12:06:34;0.00;0.00;0.62;0.00;0.00;0.62;2.03;0.90;;;20.80;27.20;;;;;;2264915;61;20452;-61